默认 日期 大小 文件数 浏览量 最新下载 xml
ep 3磁力链接相关资源由用户搜索指令自动获取,结果来源于网络,本站不存储任何资料,亦不承担任何责任,请于24小时内删除,搜索到3171个磁力,用时40ms。
    ... .jpg": 339759, "Angel Blade Punish! - 3 [1280x720].ass": 26711, "Angel Blade ... Punish! - 3 [1280x720].mkv": 190648281, "www.hentaionline ...
创建时间: 2020-02-25 14:58:22 大小:182.33 MB 文件数量:9 热度:6 最近下载:2025-04-27 11:45:01
    {"Prestuplenie ep.3 iz 20 (2017 )1080p.mkv": 1441750858, "Torrent have been downloaded from absolutetorrents.com.txt": 225}
创建时间: 2020-03-05 03:20:57 大小:1.34 GB 文件数量:2 热度:4 最近下载:2024-12-11 13:15:02
    {"Sluga naroda (03 iz 24).(2015)1080p.mkv": 841332230, "Torrent have been downloaded from absolutetorrents.com.txt": 225}
创建时间: 2020-03-07 23:16:38 大小:802.36 MB 文件数量:2 热度:6 最近下载:2024-12-25 13:36:02
    {"Konvoj ep.3-4(2017)720p.mkv": 1335794861}
创建时间: 2020-03-23 21:22:33 大小:1.24 GB 文件数量:1 热度:3 最近下载:2023-12-28 21:16:03
    {"25. Sub Urban - Cradles [4K] (Glamour Music TV).mp4": 341531566, "20. Krewella - Greenlights [4K] (Glamour Music TV).mp4": 346920017, "04. DHARIA - August diaries [4K] (Glamour Music TV).mp4": 259454248, "12. Arizona Zervas - Roxanne [4K] (Glamour Music ...
创建时间: 2020-03-23 23:29:08 大小:7.98 GB 文件数量:30 热度:10 最近下载:2025-02-25 12:01:51
    {"folder.jpg": 38284, "Folder.auCDtect.txt": 2106, "01. Stoneface & Terminal - Alive (Club Mix).flac": 62315363, "02. Stoneface & Terminal - Deepressure (Club Mix).flac": 44421845, "03. Stoneface & Terminal - Electric Rain (Steve Brian Remix).flac": ...
创建时间: 2020-03-27 09:51:38 大小:139.14 MB 文件数量:5 热度:3 最近下载:2023-12-29 11:23:06
    {"Couplesex in a bowling club.avi": 492749600, "Torrent Downloads piratepublic.com.txt": 226}
创建时间: 2020-03-28 19:27:50 大小:469.92 MB 文件数量:2 热度:4 最近下载:2023-12-29 12:19:06
    {"After Class Lesson vol 03.jpg": 192858, "After Class Lesson 720p 03.jpg": 271080, "After Class Lesson 720p 03.mkv": 470127157, "www.hentaionline.in - watch hentai online.url": 112, "www.NewMovieTrailers.eu - new movies coming.url": 53, "www. ...
创建时间: 2020-03-31 14:28:16 大小:448.79 MB 文件数量:6 热度:9 最近下载:2025-06-14 11:15:02
    {"Viper GTS - 3 .jpg": 173179, "Viper GTS HD ...
创建时间: 2020-03-31 15:13:56 大小:386.18 MB 文件数量:6 热度:4 最近下载:2023-12-29 13:19:03
    {"V앱 160302 유라랑 놀자! 2 EP.3-1.mp4": 56045242, "V앱 160302 유라랑 놀자! 2 EP.3-2.mp4": 9829498, "V앱 160302 유라랑 놀자! 2 EP.3-3.mp4": 844484799}
创建时间: 2020-04-06 18:10:30 大小:868.19 MB 文件数量:3 热度:3 最近下载:2023-12-30 03:04:05
    {"25. Sub Urban - Cradles [4K] (Glamour Music TV).mp4": 341531566, "20. Krewella - Greenlights [4K] (Glamour Music TV).mp4": 346920017, "04. DHARIA - August diaries [4K] (Glamour Music TV).mp4": 259454248, "12. Arizona Zervas - Roxanne [4K] (Glamour Music ...
创建时间: 2020-04-14 11:30:14 大小:7.98 GB 文件数量:30 热度:5 最近下载:2025-03-08 02:58:03
    {"Supergirl S04 EP 3 720p BR DESIREMOVIES.KIM.mkv": 428439133}
创建时间: 2020-04-16 20:03:56 大小:408.59 MB 文件数量:1 热度:2 最近下载:2023-12-31 04:18:05
    ... Arms ep 3.part01.rar": 14680064, "Bikie wars - brothers in Arms ep 3.part02 ... .rar": 14680064, "Bikie wars - brothers in Arms ep 3.part03 ... .rar": 14680064, "Bikie wars - brothers in Arms ep 3.part04 ...
创建时间: 2020-04-22 04:53:59 大小:345.73 MB 文件数量:140 热度:6 最近下载:2025-01-08 02:49:01
    {"RARBG.com.txt": 34, "ZZSeries - Angelika Black, Aleska Diamond - Ep-3 Fucking On The First Date": {"zzs_bw_budapest03-sd169.mp4": 696449586}}
创建时间: 2020-04-24 00:41:50 大小:664.19 MB 文件数量:2 热度:4 最近下载:2024-01-01 00:59:02
    {"im sis 3.jpg": 156046, "www.NewMovieTrailers.eu.url": 53, "Ai_Shimai._Futari_no_Kajitsu_-_3.mkv": 938937647, "Ai_Shimai._futari_no_kajitsu_-_3.jpg": 211102, "www.hentaionline.in - watch hentai online.url": 112}
创建时间: 2020-04-26 21:49:07 大小:895.79 MB 文件数量:5 热度:31 最近下载:2025-10-12 16:49:04
    ... ": 250185, "Bible Black New Testament - 3 .jpg": 158887, "Bible Black New ... Testament - 3 [960x720].ass": 15702, "Bible Black ... New Testament - 3 [960x720].mkv": 127000836, "www.hentaionline ...
创建时间: 2020-05-23 12:11:14 大小:121.52 MB 文件数量:6 热度:10 最近下载:2024-12-22 03:40:01
    {"女子高生の無駄づかい#03.ass": 70475, "女子高生の無駄づかい#03.mkv": 1858258423}
创建时间: 2020-05-24 02:39:37 大小:1.73 GB 文件数量:2 热度:2 最近下载:2021-06-17 16:25:58
    {"Rabbit.Hole Ep. 3 2160p.mp4": 2804775567, "Rabbit.Hole Ep. 3 2160p.Eng.srt": 10909}
创建时间: 2020-05-29 18:53:27 大小:2.61 GB 文件数量:2 热度:8 最近下载:2022-04-13 07:11:22
    {"cover.jpg": 28420, "Ferry Corsten - Voema.mp3": 13687706, "Ferry Corsten - Follow You.mp3": 16034640, "Ferry Corsten Feat. Temperheart - Not Alone.mp3": 10293915, "Ferry Corsten Feat. Ethan Thompson - Heart's Beating Faster.mp3": 13644933, "Ferry Corsten ...
创建时间: 2020-06-08 23:53:52 大小:69.34 MB 文件数量:7 热度:4 最近下载:2022-04-14 05:44:12
    {"3 Gigs More music NOW !.txt": 362, "jersey.shore.s04e03.pdtv.xvid-fqm.avi": 367273872}
创建时间: 2020-06-12 15:56:34 大小:350.26 MB 文件数量:2 热度:2 最近下载:2022-04-14 05:41:28